createdAt,value
2023-01-02T00:00:51.628Z,6.23
2023-01-02T00:03:59.243Z,6.18
2023-01-02T00:07:03.171Z,6.14
2023-01-02T00:10:06.288Z,6.08
2023-01-02T00:13:09.957Z,6.09
2023-01-02T00:16:20.755Z,6.14
2023-01-02T00:19:23.405Z,6.20
2023-01-02T00:22:29.154Z,6.14
2023-01-02T00:25:35.517Z,6.08
2023-01-02T00:28:39.248Z,5.97
2023-01-02T00:31:42.185Z,5.90
2023-01-02T00:34:45.048Z,5.88
2023-01-02T00:37:47.996Z,5.85
2023-01-02T00:40:50.777Z,5.79
2023-01-02T00:43:54.129Z,5.79
2023-01-02T00:46:58.239Z,5.76
2023-01-02T00:50:02.760Z,5.72
2023-01-02T00:53:06.560Z,5.76
2023-01-02T00:56:11.510Z,5.73
2023-01-02T00:59:14.509Z,5.74
2023-01-02T01:02:19.424Z,5.72
2023-01-02T01:05:23.037Z,5.67
2023-01-02T01:08:25.521Z,5.61
2023-01-02T01:11:28.985Z,5.64
2023-01-02T01:14:33.284Z,5.63
2023-01-02T01:17:36.513Z,5.55
2023-01-02T01:20:40.519Z,5.51
2023-01-02T01:23:44.893Z,5.46
2023-01-02T01:26:48.022Z,5.45
2023-01-02T01:29:51.518Z,5.41
2023-01-02T01:32:56.086Z,5.39
2023-01-02T01:36:16.895Z,5.34
2023-01-02T01:39:19.998Z,5.32
2023-01-02T01:42:24.541Z,5.24
2023-01-02T01:45:27.109Z,5.18
2023-01-02T01:48:30.663Z,5.15
2023-01-02T01:51:41.177Z,5.13
2023-01-02T01:54:54.072Z,5.12
2023-01-02T01:58:00.895Z,5.10
2023-01-02T02:01:06.411Z,5.08
2023-01-02T02:04:11.504Z,5.07
2023-01-02T02:07:14.441Z,5.09
2023-01-02T02:10:20.648Z,5.05
2023-01-02T02:13:33.152Z,4.99
2023-01-02T02:17:04.309Z,4.99
2023-01-02T02:20:16.411Z,5.03
2023-01-02T02:23:48.594Z,4.97
2023-01-02T02:27:12.117Z,4.94
2023-01-02T02:30:20.804Z,4.94
2023-01-02T02:33:46.453Z,4.92
2023-01-02T02:37:21.435Z,4.90
2023-01-02T02:40:41.108Z,4.85
2023-01-02T02:44:02.716Z,4.76
2023-01-02T02:47:38.345Z,4.69
2023-01-02T02:51:02.942Z,4.66
2023-01-02T02:54:16.435Z,4.61
2023-01-02T02:57:20.677Z,4.52
2023-01-02T03:00:26.285Z,4.46
2023-01-02T03:03:29.831Z,4.41
2023-01-02T03:07:00.089Z,4.31
2023-01-02T03:10:15.221Z,4.31
2023-01-02T03:13:40.576Z,4.27
2023-01-02T03:16:46.970Z,4.24
2023-01-02T03:19:57.873Z,4.24
2023-01-02T03:23:08.252Z,4.26
2023-01-02T03:26:15.744Z,4.29
2023-01-02T03:29:30.520Z,4.28
2023-01-02T03:32:43.843Z,4.29
2023-01-02T03:35:51.571Z,4.31
2023-01-02T03:39:02.568Z,4.34
2023-01-02T03:42:34.182Z,4.39
2023-01-02T03:45:42.635Z,4.41
2023-01-02T03:48:54.114Z,4.49
2023-01-02T03:51:57.108Z,4.51
2023-01-02T03:55:02.053Z,4.50
2023-01-02T03:58:13.159Z,4.47
2023-01-02T04:01:28.740Z,4.46
2023-01-02T04:04:50.955Z,4.47
2023-01-02T04:08:10.261Z,4.47
2023-01-02T04:11:17.289Z,4.49
2023-01-02T04:14:33.633Z,4.51
2023-01-02T04:17:45.148Z,4.50
2023-01-02T04:20:53.045Z,4.50
2023-01-02T04:24:03.171Z,4.55
2023-01-02T04:27:14.736Z,4.53
2023-01-02T04:30:19.905Z,4.53
2023-01-02T04:33:25.015Z,4.52
2023-01-02T04:36:28.579Z,4.50
2023-01-02T04:39:32.497Z,4.55
2023-01-02T04:42:36.009Z,4.51
2023-01-02T04:45:38.862Z,4.53
2023-01-02T04:48:41.993Z,4.47
2023-01-02T04:51:45.892Z,4.45
2023-01-02T04:54:48.706Z,4.47
2023-01-02T04:57:51.303Z,4.47
2023-01-02T05:00:55.134Z,4.47
2023-01-02T05:03:59.430Z,4.45
2023-01-02T05:07:03.611Z,4.43
2023-01-02T05:10:12.512Z,4.43
2023-01-02T05:13:16.385Z,4.36
2023-01-02T05:16:19.392Z,4.32
2023-01-02T05:19:22.680Z,4.34
2023-01-02T05:22:43.958Z,4.33
2023-01-02T05:25:47.199Z,4.31
2023-01-02T05:28:54.600Z,4.32
2023-01-02T05:31:57.825Z,4.35
2023-01-02T05:35:00.574Z,4.34
2023-01-02T05:38:04.018Z,4.35
2023-01-02T05:41:08.228Z,4.37
2023-01-02T05:44:13.460Z,4.39
2023-01-02T05:47:17.094Z,4.39
2023-01-02T05:50:20.388Z,4.36
2023-01-02T05:53:23.451Z,4.35
2023-01-02T05:56:29.813Z,4.36
2023-01-02T05:59:36.097Z,4.37
2023-01-02T06:02:44.303Z,4.38
2023-01-02T06:05:51.118Z,4.39
2023-01-02T06:08:54.234Z,4.40
2023-01-02T06:11:58.524Z,4.41
2023-01-02T06:15:04.125Z,4.40
2023-01-02T06:18:09.135Z,4.42
2023-01-02T06:21:14.967Z,4.41
2023-01-02T06:24:18.680Z,4.43
2023-01-02T06:27:22.455Z,4.45
2023-01-02T06:30:30.223Z,4.47
2023-01-02T06:33:36.148Z,4.51
2023-01-02T06:36:43.839Z,4.53
2023-01-02T06:39:47.642Z,4.53
2023-01-02T06:42:59.876Z,4.52
2023-01-02T06:46:08.287Z,4.55
2023-01-02T06:49:12.502Z,4.61
2023-01-02T06:52:19.280Z,4.60
2023-01-02T06:55:28.463Z,4.59
2023-01-02T06:58:35.371Z,4.62
2023-01-02T07:01:39.098Z,4.62
2023-01-02T07:04:44.508Z,4.63
2023-01-02T07:07:48.732Z,4.64
2023-01-02T07:10:55.240Z,4.69
2023-01-02T07:14:04.571Z,4.73
2023-01-02T07:17:14.817Z,4.76
2023-01-02T07:20:19.214Z,4.78
2023-01-02T07:23:22.667Z,4.80
2023-01-02T07:26:26.132Z,4.84
2023-01-02T07:29:28.916Z,4.90
2023-01-02T07:32:34.360Z,4.95
2023-01-02T07:35:39.211Z,5.00
2023-01-02T07:38:46.369Z,5.01
2023-01-02T07:41:56.167Z,5.01
2023-01-02T07:44:59.943Z,4.97
2023-01-02T07:48:06.529Z,4.98
2023-01-02T07:51:11.185Z,5.01
2023-01-02T07:54:14.079Z,5.07
2023-01-02T07:57:22.289Z,5.09
2023-01-02T08:00:36.725Z,5.15
2023-01-02T08:03:47.562Z,5.13
2023-01-02T08:06:59.089Z,5.14
2023-01-02T08:10:02.464Z,5.16
2023-01-02T08:13:16.240Z,5.12
2023-01-02T08:16:30.073Z,5.12
2023-01-02T08:19:34.697Z,5.12
2023-01-02T08:22:44.369Z,5.13
2023-01-02T08:26:00.291Z,5.24
2023-01-02T08:29:04.323Z,5.25
2023-01-02T08:32:11.160Z,5.29
2023-01-02T08:35:29.433Z,5.19
2023-01-02T08:38:44.565Z,5.24
2023-01-02T08:41:49.102Z,5.28
2023-01-02T08:44:59.260Z,5.34
2023-01-02T08:48:21.127Z,5.42
2023-01-02T08:51:27.100Z,5.47
2023-01-02T08:54:41.133Z,5.53
2023-01-02T08:57:45.083Z,5.58
2023-01-02T09:00:53.176Z,5.51
2023-01-02T09:04:11.990Z,5.53
2023-01-02T09:07:22.171Z,5.46
2023-01-02T09:10:33.249Z,5.44
2023-01-02T09:13:39.310Z,5.50
2023-01-02T09:16:45.331Z,5.52
2023-01-02T09:19:50.128Z,5.61
2023-01-02T09:22:53.668Z,5.55
2023-01-02T09:26:04.090Z,5.58
2023-01-02T09:29:18.014Z,5.68
2023-01-02T09:32:31.558Z,5.63
2023-01-02T09:35:39.738Z,5.71
2023-01-02T09:38:57.070Z,5.72
2023-01-02T09:42:01.084Z,5.81
2023-01-02T09:45:08.981Z,5.97
2023-01-02T09:48:24.961Z,5.99
2023-01-02T09:51:43.248Z,6.14
2023-01-02T09:54:56.123Z,6.22
2023-01-02T09:58:31.100Z,6.29
2023-01-02T10:02:07.381Z,6.49
2023-01-02T10:05:18.568Z,6.80
2023-01-02T10:09:02.047Z,6.84
2023-01-02T10:12:31.994Z,6.72
2023-01-02T10:15:40.240Z,6.64
2023-01-02T10:18:50.261Z,6.67
2023-01-02T10:22:00.872Z,6.72
2023-01-02T10:25:30.160Z,6.74
2023-01-02T10:28:46.596Z,6.78
2023-01-02T10:32:05.252Z,6.87
2023-01-02T10:35:25.109Z,7.02
2023-01-02T10:38:39.086Z,7.07
2023-01-02T10:41:48.141Z,7.13
2023-01-02T10:44:57.089Z,7.55
2023-01-02T10:48:08.289Z,7.82
2023-01-02T10:51:20.164Z,7.82
2023-01-02T10:54:24.110Z,7.94
2023-01-02T10:57:44.207Z,7.73
2023-01-02T11:01:08.498Z,7.87
2023-01-02T11:04:14.405Z,7.91
2023-01-02T11:07:32.988Z,7.95
2023-01-02T11:10:39.069Z,8.02
2023-01-02T11:13:59.019Z,8.10
2023-01-02T11:17:16.218Z,8.12
2023-01-02T11:20:36.343Z,8.30
2023-01-02T11:23:46.390Z,8.55
2023-01-02T11:26:56.020Z,8.53
2023-01-02T11:30:00.988Z,8.70
2023-01-02T11:33:16.113Z,8.73
2023-01-02T11:36:27.050Z,8.86
2023-01-02T11:39:38.145Z,8.90
2023-01-02T11:43:06.976Z,8.74
2023-01-02T11:46:22.127Z,8.77
2023-01-02T11:49:40.011Z,8.42
2023-01-02T11:53:13.190Z,8.45
2023-01-02T11:56:29.068Z,8.70
2023-01-02T11:59:48.239Z,8.80
2023-01-02T12:03:07.363Z,8.78
2023-01-02T12:06:21.126Z,8.92
2023-01-02T12:10:13.266Z,8.88
2023-01-02T12:14:10.203Z,8.91
2023-01-02T12:17:46.056Z,8.87
2023-01-02T12:21:10.131Z,8.84
2023-01-02T12:24:31.192Z,8.85
2023-01-02T12:27:42.062Z,8.85
2023-01-02T12:31:13.177Z,8.95
2023-01-02T12:34:55.292Z,8.99
2023-01-02T12:38:05.848Z,9.01
2023-01-02T12:42:00.524Z,9.07
2023-01-02T12:45:17.039Z,9.14
2023-01-02T12:48:56.010Z,9.20
2023-01-02T12:52:21.743Z,9.27
2023-01-02T12:56:06.996Z,9.36
2023-01-02T12:59:27.234Z,9.35
2023-01-02T13:02:56.650Z,9.39
2023-01-02T13:06:48.596Z,9.41
2023-01-02T13:09:57.355Z,9.44
2023-01-02T13:13:06.107Z,9.43
2023-01-02T13:16:25.217Z,9.53
2023-01-02T13:19:42.168Z,9.57
2023-01-02T13:23:19.261Z,9.55
2023-01-02T13:26:26.636Z,9.54
2023-01-02T13:29:47.343Z,9.54
2023-01-02T13:33:03.987Z,9.52
2023-01-02T13:36:22.869Z,9.54
2023-01-02T13:39:45.073Z,9.57
2023-01-02T13:42:58.513Z,9.58
2023-01-02T13:46:04.354Z,9.63
2023-01-02T13:49:20.144Z,9.78
2023-01-02T13:52:29.137Z,9.81
2023-01-02T13:55:39.795Z,9.81
2023-01-02T13:58:51.301Z,9.89
2023-01-02T14:02:08.356Z,9.90
2023-01-02T14:05:50.871Z,9.97
2023-01-02T14:09:04.897Z,10.01
2023-01-02T14:12:14.497Z,10.04
2023-01-02T14:15:27.116Z,10.06
2023-01-02T14:18:46.066Z,9.91
2023-01-02T14:22:00.381Z,9.83
2023-01-02T14:25:12.724Z,9.68
2023-01-02T14:28:30.337Z,9.63
2023-01-02T14:31:42.070Z,9.63
2023-01-02T14:34:56.184Z,9.58
2023-01-02T14:38:23.416Z,9.52
2023-01-02T14:42:11.089Z,9.39
2023-01-02T14:45:21.089Z,9.31
2023-01-02T14:48:45.160Z,9.11
2023-01-02T14:52:07.086Z,8.95
2023-01-02T14:55:19.374Z,8.79
2023-01-02T14:58:38.256Z,8.71
2023-01-02T15:01:44.883Z,8.52
2023-01-02T15:05:12.975Z,8.36
2023-01-02T15:08:42.531Z,8.16
2023-01-02T15:12:17.281Z,8.05
2023-01-02T15:15:28.239Z,7.95
2023-01-02T15:18:37.853Z,7.87
2023-01-02T15:21:44.031Z,7.77
2023-01-02T15:24:51.802Z,7.66
2023-01-02T15:27:58.060Z,7.59
2023-01-02T15:31:14.159Z,7.50
2023-01-02T15:34:29.503Z,7.41
2023-01-02T15:37:42.350Z,7.38
2023-01-02T15:40:56.473Z,7.30
2023-01-02T15:44:24.017Z,7.23
2023-01-02T15:47:33.857Z,7.19
2023-01-02T15:50:42.080Z,7.10
2023-01-02T15:54:03.401Z,7.04
2023-01-02T15:57:24.180Z,6.92
2023-01-02T16:00:40.418Z,6.84
2023-01-02T16:04:08.183Z,6.79
2023-01-02T16:07:25.053Z,6.75
2023-01-02T16:10:32.203Z,6.67
2023-01-02T16:14:07.100Z,6.62
2023-01-02T16:17:28.095Z,6.58
2023-01-02T16:20:42.386Z,6.51
2023-01-02T16:23:53.314Z,6.49
2023-01-02T16:26:59.311Z,6.41
2023-01-02T16:30:28.471Z,6.35
2023-01-02T16:33:38.101Z,6.30
2023-01-02T16:36:48.016Z,6.27
2023-01-02T16:40:02.948Z,6.22
2023-01-02T16:43:15.177Z,6.17
2023-01-02T16:46:26.273Z,6.13
2023-01-02T16:49:43.946Z,6.10
2023-01-02T16:52:54.294Z,6.06
2023-01-02T16:55:59.815Z,6.00
2023-01-02T16:59:04.329Z,5.98
2023-01-02T17:02:17.295Z,5.95
2023-01-02T17:05:38.526Z,5.90
2023-01-02T17:08:57.267Z,5.91
2023-01-02T17:12:04.430Z,5.89
2023-01-02T17:15:13.737Z,5.88
2023-01-02T17:18:30.186Z,5.85
2023-01-02T17:21:43.885Z,5.83
2023-01-02T17:24:52.615Z,5.84
2023-01-02T17:27:59.028Z,5.85
2023-01-02T17:31:11.142Z,5.86
2023-01-02T17:34:19.261Z,5.91
2023-01-02T17:37:33.275Z,5.92
2023-01-02T17:40:49.298Z,5.92
2023-01-02T17:44:03.956Z,5.93
2023-01-02T17:50:37.880Z,5.92
2023-01-02T17:53:51.017Z,5.94
2023-01-02T17:56:59.966Z,5.94
2023-01-02T18:00:20.006Z,5.96
2023-01-02T18:03:33.355Z,5.96
2023-01-02T18:06:39.629Z,5.95
2023-01-02T18:10:09.095Z,5.95
2023-01-02T18:13:25.238Z,5.95
2023-01-02T18:16:35.115Z,5.93
2023-01-02T18:19:44.060Z,5.93
2023-01-02T18:22:59.171Z,5.91
2023-01-02T18:26:13.443Z,5.87
2023-01-02T18:29:26.173Z,5.86
2023-01-02T18:32:40.057Z,5.85
2023-01-02T18:35:57.081Z,5.88
2023-01-02T18:39:32.076Z,5.85
2023-01-02T18:42:52.006Z,5.82
2023-01-02T18:46:14.113Z,5.81
2023-01-02T18:49:31.484Z,5.76
2023-01-02T18:52:44.061Z,5.70
2023-01-02T18:55:48.050Z,5.69
2023-01-02T18:59:27.120Z,5.68
2023-01-02T19:03:07.417Z,5.68
2023-01-02T19:06:23.445Z,5.69
2023-01-02T19:09:37.203Z,5.65
2023-01-02T19:13:07.157Z,5.65
2023-01-02T19:16:19.323Z,5.66
2023-01-02T19:19:26.289Z,5.67
2023-01-02T19:22:34.556Z,5.69
2023-01-02T19:25:45.014Z,5.72
2023-01-02T19:29:20.059Z,5.72
2023-01-02T19:32:35.280Z,5.74
2023-01-02T19:36:01.070Z,5.78
2023-01-02T19:39:24.610Z,5.76
2023-01-02T19:42:36.083Z,5.80
2023-01-02T19:46:02.035Z,5.78
2023-01-02T19:49:19.050Z,5.78
2023-01-02T19:52:29.183Z,5.81
2023-01-02T19:56:00.986Z,5.81
2023-01-02T19:59:12.893Z,5.83
2023-01-02T20:02:28.273Z,5.78
2023-01-02T20:05:39.814Z,5.80
2023-01-02T20:08:47.278Z,5.79
2023-01-02T20:12:12.169Z,5.80
2023-01-02T20:15:25.311Z,5.81
2023-01-02T20:18:31.515Z,5.81
2023-01-02T20:21:36.149Z,5.82
2023-01-02T20:24:49.315Z,5.84
2023-01-02T20:28:01.009Z,5.87
2023-01-02T20:31:11.151Z,5.89
2023-01-02T20:34:20.091Z,5.91
2023-01-02T20:37:30.996Z,5.95
2023-01-02T20:40:35.193Z,5.97
2023-01-02T20:43:40.157Z,5.99
2023-01-02T20:46:56.948Z,6.01
2023-01-02T20:50:05.104Z,6.03
2023-01-02T20:53:12.308Z,6.03
2023-01-02T20:56:20.883Z,6.08
2023-01-02T20:59:26.347Z,6.09
2023-01-02T21:02:40.492Z,6.11
2023-01-02T21:05:50.208Z,6.13
2023-01-02T21:08:54.559Z,6.14
2023-01-02T21:11:57.609Z,6.15
2023-01-02T21:15:31.026Z,6.16
2023-01-02T21:18:43.041Z,6.17
2023-01-02T21:21:56.920Z,6.22
2023-01-02T21:25:00.768Z,6.24
2023-01-02T21:28:18.651Z,6.23
2023-01-02T21:31:24.200Z,6.25
2023-01-02T21:34:29.692Z,6.24
2023-01-02T21:37:33.157Z,6.28
2023-01-02T21:40:40.987Z,6.27
2023-01-02T21:43:45.891Z,6.28
2023-01-02T21:46:51.319Z,6.31
2023-01-02T21:49:55.059Z,6.37
2023-01-02T21:53:03.996Z,6.36
2023-01-02T21:56:09.738Z,6.32
2023-01-02T21:59:14.848Z,6.35
2023-01-02T22:02:26.705Z,6.37
2023-01-02T22:05:47.952Z,6.39
2023-01-02T22:08:52.075Z,6.42
2023-01-02T22:11:58.058Z,6.44
2023-01-02T22:15:01.470Z,6.43
2023-01-02T22:18:05.565Z,6.46
2023-01-02T22:21:14.057Z,6.46
2023-01-02T22:24:19.820Z,6.45
2023-01-02T22:27:33.303Z,6.45
2023-01-02T22:30:39.041Z,6.46
2023-01-02T22:33:42.128Z,6.47
2023-01-02T22:36:46.488Z,6.47
2023-01-02T22:39:51.060Z,6.49
2023-01-02T22:43:00.850Z,6.50
2023-01-02T22:46:18.100Z,6.52
2023-01-02T22:49:27.347Z,6.56
2023-01-02T22:52:31.813Z,6.58
2023-01-02T22:55:35.682Z,6.58
2023-01-02T22:58:47.306Z,6.60
2023-01-02T23:01:51.513Z,6.60
2023-01-02T23:04:58.188Z,6.58
2023-01-02T23:08:11.309Z,6.58
2023-01-02T23:11:14.899Z,6.58
2023-01-02T23:14:19.310Z,6.60
2023-01-02T23:17:41.641Z,6.61
2023-01-02T23:20:47.317Z,6.63
2023-01-02T23:23:51.625Z,6.63
2023-01-02T23:26:57.672Z,6.64
2023-01-02T23:30:03.979Z,6.65
2023-01-02T23:33:18.050Z,6.67
2023-01-02T23:36:24.838Z,6.68
2023-01-02T23:39:31.466Z,6.68
2023-01-02T23:42:36.270Z,6.71
2023-01-02T23:45:39.628Z,6.72
2023-01-02T23:48:43.904Z,6.73
2023-01-02T23:51:46.771Z,6.74
2023-01-02T23:54:49.447Z,6.74
2023-01-02T23:57:53.018Z,6.77
